Data for 04/08/2010

Time Sea-Level Adjusted Pressure Absolute Pressure Temperature Relative Humidity Dew Point   
(mb) (inHg) (mb) (inHg) (C) (F) (%) (C) (F)
00:05 1019 30.09 848 25.04 2.5 36.5 54 -5.9 21.3
00:10 1019 30.09 848 25.04 2.1 35.7 57 -5.5 22.2
00:15 1019 30.09 848 25.04 1.5 34.8 58 -5.8 21.6
00:20 1019 30.09 848 25.04 1.6 34.9 57 -6.1 21
00:25 1019 30.09 848 25.04 2 35.5 55 -6.2 20.9
00:30 1019 30.09 848 25.04 1.9 35.4 57 -5.8 21.6
00:35 1019 30.09 848 25.04 1.9 35.4 55 -6.2 20.9
00:40 1018 30.06 848 25.04 2 35.5 56 -5.8 21.5
00:45 1018 30.06 848 25.04 1.3 34.4 60 -5.5 22
00:50 1018 30.06 848 25.04 0.7 33.3 63 -5.5 22.1
00:55 1018 30.06 847 25.01 0.7 33.3 59 -6.3 20.6
01:00 1018 30.06 847 25.01 0.8 33.5 63 -5.5 22.2
01:05 1018 30.06 847 25.01 0.3 32.5 63 -5.9 21.4
01:10 1018 30.06 847 25.01 0.4 32.7 62 -6.1 21
01:15 1018 30.06 847 25.01 0.4 32.8 62 -6 21.1
01:20 1018 30.06 847 25.01 0.4 32.8 63 -5.7 21.7
01:25 1018 30.06 847 25.01 0.5 32.9 61 -6.1 21
01:30 1018 30.06 847 25.01 0.6 33 62 -6 21.2
01:35 1018 30.06 847 25.01 0.4 32.7 62 -6 21.2
01:40 1018 30.06 847 25.01 0.4 32.7 62 -6.1 21.1
01:45 1018 30.06 847 25.01 0.5 32.9 61 -6.2 20.8
01:50 1018 30.06 847 25.01 0.6 33.1 61 -6 21.2
01:55 1018 30.06 847 25.01 0.9 33.7 58 -6.4 20.4
02:00 1018 30.06 847 25.01 1.7 35.1 55 -6.4 20.4
02:05 1018 30.06 847 25.01 1.7 35 56 -6.1 21
02:10 1018 30.06 847 25.01 1.5 34.6 57 -6.2 20.9
02:15 1018 30.06 847 25.01 1.2 34.1 59 -6 21.2
02:20 1018 30.06 847 25.01 0.7 33.2 61 -6 21.1
02:25 1018 30.06 847 25.01 0.6 33 60 -6.2 20.8
02:30 1017 30.03 847 25.01 0.7 33.3 60 -6.2 20.8
02:35 1017 30.03 847 25.01 0.8 33.5 60 -6.2 20.9
02:40 1017 30.03 846 24.98 0.8 33.5 59 -6.2 20.9
02:45 1017 30.03 846 24.98 0.8 33.5 59 -6.2 20.8
02:50 1017 30.03 846 24.98 0.8 33.4 60 -6.1 20.9
02:55 1017 30.03 846 24.98 0.6 33.1 59 -6.5 20.2
03:00 1017 30.03 846 24.98 0.6 33.1 63 -5.5 22
03:05 1017 30.03 846 24.98 0.1 32.1 65 -5.8 21.5
03:10 1017 30.03 846 24.98 -0.2 31.7 67 -5.6 21.8
03:15 1017 30.03 846 24.98 -0.6 31 66 -6.1 21
03:20 1017 30.03 846 24.98 -0.3 31.4 64 -6.3 20.6
03:25 1016 30 846 24.98 0 32.1 62 -6.4 20.5
03:30 1016 30 846 24.98 0.5 32.9 61 -6.2 20.9
03:35 1016 30 846 24.98 0.6 33 60 -6.3 20.7
03:40 1016 30 846 24.98 0.7 33.2 58 -6.6 20.2
03:45 1016 30 845 24.95 0.4 32.7 61 -6.3 20.7
03:50 1016 30 845 24.95 0.4 32.8 61 -6.3 20.7
03:55 1016 30 845 24.95 0.5 32.8 61 -6.2 20.8
04:00 1016 30 845 24.95 0.4 32.7 61 -6.2 20.8
04:05 1016 30 845 24.95 0.4 32.8 61 -6.2 20.8
04:10 1016 30 845 24.95 0.2 32.4 62 -6.1 21
04:15 1016 30 845 24.95 0 32 63 -6.2 20.8
04:20 1016 30 845 24.95 -0.3 31.4 64 -6.3 20.7
04:25 1016 30 845 24.95 -0.3 31.4 63 -6.6 20.2
04:30 1015 29.97 845 24.95 -0 32 62 -6.5 20.4
04:35 1015 29.97 845 24.95 0.1 32.2 61 -6.4 20.4
04:40 1015 29.97 844 24.92 0.4 32.8 60 -6.5 20.3
04:45 1015 29.97 844 24.92 0.4 32.7 61 -6.3 20.6
04:50 1015 29.97 844 24.92 0.1 32.2 62 -6.4 20.4
04:55 1015 29.97 844 24.92 -0.1 31.9 62 -6.6 20.2
05:00 1015 29.97 844 24.92 0.1 32.1 61 -6.6 20
05:05 1015 29.97 844 24.92 0.3 32.5 60 -6.7 20
05:10 1015 29.97 844 24.92 0.3 32.5 61 -6.4 20.5
05:15 1015 29.97 844 24.92 -0.2 31.6 62 -6.6 20.2
05:20 1015 29.97 844 24.92 -0.3 31.5 62 -6.7 20
05:25 1015 29.97 844 24.92 -0.1 31.9 62 -6.6 20.2
05:30 1014 29.94 844 24.92 -0.1 31.8 62 -6.6 20.2
05:35 1014 29.94 844 24.92 -0.2 31.7 62 -6.6 20.1
05:40 1014 29.94 843 24.89 -0.2 31.6 61 -6.8 19.8
05:45 1014 29.94 843 24.89 -0.1 31.8 62 -6.5 20.3
05:50 1014 29.94 843 24.89 -0.3 31.5 62 -6.6 20
05:55 1014 29.94 843 24.89 -0.3 31.5 62 -6.7 19.9
06:00 1014 29.94 843 24.89 0.2 32.3 59 -7 19.4
06:05 1014 29.94 843 24.89 0.6 33.1 57 -7.1 19.3
06:10 1014 29.94 843 24.89 0.9 33.6 56 -6.8 19.7
06:15 1014 29.94 843 24.89 0.8 33.5 57 -6.7 19.9
06:20 1014 29.94 843 24.89 0.7 33.3 57 -6.7 19.9
06:25 1014 29.94 843 24.89 0.5 32.9 58 -6.7 19.9
06:30 1014 29.94 843 24.89 0.5 32.8 58 -6.8 19.8
06:35 1014 29.94 843 24.89 0.6 33.1 57 -6.9 19.5
06:40 1013 29.91 843 24.89 1 33.8 56 -6.7 19.9
06:45 1014 29.94 843 24.89 0.9 33.6 57 -6.7 20
06:50 1013 29.91 843 24.89 1 33.8 55 -7 19.4
06:55 1013 29.91 843 24.89 1.2 34.1 55 -6.9 19.7
07:00 1013 29.91 842 24.86 1.4 34.5 54 -6.8 19.7
07:05 1013 29.91 842 24.86 1.4 34.4 54 -6.9 19.5
07:10 1013 29.91 842 24.86 1.4 34.6 55 -6.6 20.1
07:15 1013 29.91 842 24.86 1.3 34.3 55 -6.7 19.9
07:20 1013 29.91 842 24.86 1.3 34.3 54 -6.9 19.6
07:25 1013 29.91 842 24.86 1.3 34.3 57 -6.5 20.4
07:30 1013 29.91 842 24.86 1.1 33.9 56 -6.7 19.9
07:35 1013 29.91 842 24.86 1.1 33.9 56 -6.7 19.9
07:40 1013 29.91 842 24.86 1.4 34.5 55 -6.8 19.8
07:45 1013 29.91 842 24.86 1.7 35 54 -6.7 19.9
07:50 1013 29.91 842 24.86 1.9 35.5 53 -6.7 20
07:55 1013 29.91 842 24.86 2 35.6 53 -6.7 19.9
08:00 1013 29.91 842 24.86 2.2 36 52 -6.5 20.2
08:05 1012 29.88 842 24.86 2.2 36 53 -6.5 20.4
08:10 1012 29.88 842 24.86 2.3 36.1 52 -6.5 20.3
08:15 1013 29.91 842 24.86 2.5 36.4 52 -6.5 20.3
08:20 1012 29.88 842 24.86 2.5 36.5 50 -6.8 19.8
08:25 1012 29.88 842 24.86 2.8 37 50 -6.7 20
08:30 1012 29.88 842 24.86 2.9 37.3 50 -6.4 20.4
08:35 1012 29.88 842 24.86 3.1 37.5 49 -6.6 20.2
08:40 1012 29.88 842 24.86 3.4 38.1 49 -6.3 20.6
08:45 1012 29.88 841 24.83 3.8 38.9 47 -6.5 20.3
08:50 1012 29.88 841 24.83 3.8 38.8 48 -6.2 20.9
08:55 1012 29.88 841 24.83 4 39.1 48 -6.2 20.8
09:00 1012 29.88 841 24.83 4.2 39.5 46 -6.3 20.6
09:05 1012 29.88 841 24.83 4.6 40.2 47 -5.9 21.5
09:10 1012 29.88 841 24.83 4.5 40.1 49 -5.3 22.5
09:15 1012 29.88 841 24.83 3.9 39 54 -4.6 23.8
09:20 1012 29.88 841 24.83 3.6 38.5 54 -4.9 23.2
09:25 1012 29.88 841 24.83 3.8 38.8 54 -4.8 23.3
09:30 1012 29.88 841 24.83 3.7 38.6 53 -5.1 22.9
09:35 1012 29.88 841 24.83 3.8 38.8 53 -4.9 23.2
09:40 1012 29.88 841 24.83 4 39.2 52 -5.1 22.8
09:45 1012 29.88 841 24.83 3.9 39 51 -5.2 22.6
09:50 1012 29.88 841 24.83 3.9 39 52 -5.1 22.9
09:55 1012 29.88 841 24.83 4 39.2 51 -5.3 22.5
10:00 1012 29.88 841 24.83 4.2 39.5 52 -4.9 23.3
10:05 1012 29.88 841 24.83 4.3 39.7 52 -4.8 23.3
10:10 1011 29.85 841 24.83 4.5 40.1 50 -4.9 23.2
10:15 1011 29.85 841 24.83 4.8 40.6 50 -4.8 23.4
10:20 1011 29.85 840 24.81 4.8 40.7 50 -4.8 23.4
10:25 1011 29.85 840 24.81 4.8 40.7 50 -4.8 23.4
10:30 1011 29.85 840 24.81 4.6 40.3 50 -4.8 23.4
10:35 1011 29.85 840 24.81 4.6 40.3 51 -4.6 23.8
10:40 1011 29.85 840 24.81 4.9 40.9 49 -4.8 23.4
10:45 1011 29.85 840 24.81 5.2 41.4 49 -4.6 23.7
10:50 1011 29.85 840 24.81 5.4 41.7 47 -4.9 23.2
10:55 1011 29.85 840 24.81 5.4 41.8 46 -5.1 22.7
11:00 1010 29.83 840 24.81 5.7 42.2 47 -4.6 23.6
11:05 1010 29.83 839 24.78 6 42.8 46 -4.7 23.5
11:10 1010 29.83 839 24.78 6.3 43.4 44 -5 23
11:15 1010 29.83 839 24.78 6.9 44.5 42 -5 23
11:20 1010 29.83 839 24.78 7.7 45.8 37 -6.1 21.1
11:25 1010 29.83 839 24.78 7.9 46.1 39 -5.3 22.5
11:30 1010 29.83 839 24.78 8.2 46.7 38 -5.4 22.3
11:35 1010 29.83 839 24.78 8.4 47.1 39 -4.8 23.3
11:40 1010 29.83 839 24.78 8.6 47.5 38 -5.1 22.9
11:45 1010 29.83 839 24.78 9.1 48.4 34 -6 21.3
11:50 1009 29.8 839 24.78 9.5 49 35 -5.2 22.6
11:55 1009 29.8 839 24.78 10 50 33 -5.7 21.7
12:00 1009 29.8 838 24.75 10.3 50.5 33 -5.2 22.6
12:05 1009 29.8 838 24.75 10.5 50.8 32 -5.5 22.2
12:10 1009 29.8 838 24.75 10.2 50.4 32 -5.8 21.6
12:15 1009 29.8 838 24.75 10 50.1 32 -5.8 21.5
12:20 1009 29.8 838 24.75 10.3 50.6 30 -6.4 20.5
12:25 1008 29.77 838 24.75 10.8 51.4 30 -5.9 21.3
12:30 1008 29.77 837 24.72 11.5 52.8 29 -5.8 21.5
12:35 1008 29.77 837 24.72 11.3 52.3 31 -5.4 22.3
12:40 1008 29.77 837 24.72 11.4 52.4 30 -5.6 22
12:45 1008 29.77 837 24.72 11.1 51.9 30 -5.8 21.6
12:50 1008 29.77 837 24.72 10.8 51.4 29 -6.3 20.6
12:55 1008 29.77 837 24.72 11 51.9 30 -5.9 21.3
13:00 1007 29.74 837 24.72 11 51.8 32 -5.2 22.7
13:05 1007 29.74 837 24.72 10.9 51.7 30 -5.8 21.6
13:10 1007 29.74 836 24.69 11.2 52.2 29 -6 21.2
13:15 1007 29.74 836 24.69 11.7 53 30 -5.2 22.7
13:20 1007 29.74 836 24.69 11.3 52.3 29 -6.2 20.9
13:25 1007 29.74 836 24.69 11.3 52.4 27 -7.2 19
13:30 1007 29.74 836 24.69 11.2 52.1 27 -7.2 19
13:35 1007 29.74 836 24.69 11.1 52.1 26 -7.5 18.5
13:40 1007 29.74 836 24.69 11.3 52.3 28 -6.8 19.8
13:45 1007 29.74 836 24.69 11.4 52.5 29 -6 21.2
13:50 1007 29.74 836 24.69 11.4 52.5 28 -6.5 20.2
13:55 1007 29.74 836 24.69 11.3 52.3 29 -6.2 20.9
14:00 1006 29.71 836 24.69 11.2 52.2 32 -4.8 23.4
14:05 1006 29.71 836 24.69 11.2 52.1 32 -5 23
14:10 1006 29.71 835 24.66 11.1 52 28 -6.6 20.1
14:15 1006 29.71 835 24.66 11.3 52.4 32 -4.8 23.3
14:20 1006 29.71 835 24.66 11.5 52.6 30 -5.5 22.1
14:25 1006 29.71 835 24.66 11.5 52.7 29 -5.7 21.8
14:30 1006 29.71 835 24.66 11.6 52.8 28 -6.1 21
14:35 1006 29.71 835 24.66 11.4 52.4 29 -5.9 21.4
14:40 1006 29.71 835 24.66 11.4 52.4 30 -5.5 22.2
14:45 1006 29.71 835 24.66 11.4 52.5 29 -6.1 20.9
14:50 1006 29.71 835 24.66 11.2 52.2 30 -5.8 21.5
14:55 1006 29.71 835 24.66 11.3 52.3 31 -5.2 22.6
15:00 1006 29.71 835 24.66 11.4 52.5 30 -5.5 22
15:05 1005 29.68 835 24.66 11.3 52.3 30 -5.6 22
15:10 1005 29.68 835 24.66 11.3 52.3 32 -4.8 23.3
15:15 1005 29.68 835 24.66 11.5 52.7 31 -4.9 23.2
15:20 1005 29.68 835 24.66 11.5 52.6 29 -5.8 21.6
15:25 1005 29.68 835 24.66 11.5 52.7 29 -6.1 21
15:30 1005 29.68 835 24.66 11.6 52.9 31 -5 23
15:35 1005 29.68 835 24.66 11.7 53 29 -5.7 21.7
15:40 1005 29.68 834 24.63 11.9 53.4 27 -6.5 20.3
15:45 1005 29.68 835 24.66 11.9 53.4 27 -6.3 20.7
15:50 1006 29.71 835 24.66 12.1 53.8 27 -6.3 20.7
15:55 1006 29.71 835 24.66 12.1 53.8 29 -5.5 22
16:00 1006 29.71 836 24.69 12.4 54.4 28 -5.4 22.2
16:05 1007 29.74 836 24.69 8.2 46.8 63 1.6 34.8
16:10 1008 29.77 837 24.72 3.5 38.4 79 0.2 32.3
16:15 1008 29.77 837 24.72 1.7 35.1 89 0.1 32.2
16:20 1008 29.77 837 24.72 1.1 33.9 92 -0.2 31.7
16:25 1008 29.77 837 24.72 0.7 33.2 94 -0.2 31.6
16:30 1008 29.77 838 24.75 0.4 32.7 95 -0.3 31.4
16:35 1009 29.8 838 24.75 0.1 32.2 96 -0.5 31.1
16:40 1009 29.8 838 24.75 -0.1 31.8 96 -0.7 30.8
16:45 1009 29.8 838 24.75 -0.2 31.6 97 -0.7 30.7
16:50 1009 29.8 839 24.78 -0.4 31.3 97 -0.8 30.6
16:55 1010 29.83 839 24.78 -0.4 31.3 98 -0.7 30.7
17:00 1010 29.83 839 24.78 -0.4 31.3 98 -0.6 30.9
17:05 1010 29.83 840 24.81 -0.5 31.2 99 -0.7 30.8
17:10 1010 29.83 840 24.81 -0.5 31.1 99 -0.7 30.7
17:15 1010 29.83 840 24.81 -0.6 30.9 99 -0.8 30.6
17:20 1010 29.83 840 24.81 -0.7 30.7 99 -0.9 30.4
17:25 1011 29.85 840 24.81 -0.7 30.7 99 -0.9 30.4
17:30 1011 29.85 840 24.81 -0.8 30.5 99 -0.9 30.3
17:35 1011 29.85 840 24.81 -0.7 30.7 99 -0.8 30.5
17:40 1011 29.85 840 24.81 -0.6 31 99 -0.7 30.8
17:45 1011 29.85 840 24.81 -0.4 31.3 99 -0.5 31.1
17:50 1011 29.85 840 24.81 -0.3 31.4 99 -0.4 31.2
17:55 1011 29.85 840 24.81 -0.4 31.2 99 -0.5 31.1
18:00 1011 29.85 840 24.81 -0.6 30.9 99 -0.7 30.7
18:05 1011 29.85 840 24.81 -0.7 30.7 99 -0.8 30.6
18:10 1011 29.85 840 24.81 -0.7 30.8 100 -0.7 30.7
18:15 1011 29.85 840 24.81 -0.6 30.9 100 -0.7 30.8
18:20 1011 29.85 840 24.81 -0.8 30.5 100 -0.9 30.4
18:25 1011 29.85 840 24.81 -0.9 30.4 99 -1 30.2
18:30 1011 29.85 840 24.81 -0.8 30.5 99 -0.9 30.4
18:35 1011 29.85 840 24.81 -0.6 30.8 100 -0.7 30.7
18:40 1011 29.85 840 24.81 -0.8 30.6 99 -0.9 30.4
18:45 1011 29.85 840 24.81 -0.8 30.6 99 -0.9 30.3
18:50 1011 29.85 840 24.81 -0.8 30.5 99 -1 30.2
18:55 1011 29.85 841 24.83 -0.8 30.6 99 -1 30.3
19:00 1011 29.85 841 24.83 -0.7 30.8 99 -0.9 30.4
19:05 1011 29.85 841 24.83 -0.6 30.9 99 -0.8 30.6
19:10 1012 29.88 841 24.83 -0.6 30.9 99 -0.8 30.6
19:15 1012 29.88 841 24.83 -0.6 31 99 -0.8 30.6
19:20 1012 29.88 841 24.83 -0.5 31.1 99 -0.7 30.8
19:25 1012 29.88 841 24.83 -0.5 31 99 -0.7 30.7
19:30 1012 29.88 841 24.83 -0.7 30.8 99 -0.8 30.5
19:35 1012 29.88 841 24.83 -0.6 30.9 99 -0.8 30.6
19:40 1012 29.88 841 24.83 -0.5 31.2 99 -0.7 30.8
19:45 1012 29.88 841 24.83 -0.3 31.4 97 -0.8 30.6
19:50 1012 29.88 841 24.83 -0.4 31.3 96 -0.9 30.3
19:55 1012 29.88 841 24.83 -0.6 30.9 91 -1.9 28.6
20:00 1012 29.88 841 24.83 -0.8 30.6 89 -2.3 27.8
20:05 1012 29.88 841 24.83 -0.8 30.6 82 -3.5 25.7
20:10 1012 29.88 841 24.83 -0.9 30.4 78 -4.3 24.2
20:15 1012 29.88 842 24.86 -1 30.2 75 -4.9 23.1
20:20 1013 29.91 842 24.86 -1 30.2 76 -4.7 23.6
20:25 1013 29.91 842 24.86 -0.9 30.4 75 -4.8 23.4
20:30 1013 29.91 842 24.86 -0.8 30.6 77 -4.3 24.2
20:35 1013 29.91 842 24.86 -0.7 30.7 74 -4.9 23.2
20:40 1013 29.91 842 24.86 -0.7 30.8 71 -5.3 22.5
20:45 1013 29.91 843 24.89 -0.8 30.5 70 -5.6 22
20:50 1014 29.94 843 24.89 -0.9 30.3 65 -6.7 19.9
20:55 1014 29.94 843 24.89 -1 30.2 67 -6.3 20.6
21:00 1014 29.94 843 24.89 -1.1 30 65 -6.8 19.7
21:05 1014 29.94 843 24.89 -1.1 30.1 69 -6.1 21.1
21:10 1014 29.94 843 24.89 -1.2 29.9 70 -6 21.3
21:15 1014 29.94 843 24.89 -1.3 29.7 68 -6.4 20.4
21:20 1014 29.94 843 24.89 -1.3 29.7 66 -6.9 19.6
21:25 1014 29.94 844 24.92 -1.1 30 64 -7.2 19.1
21:30 1014 29.94 844 24.92 -1 30.1 62 -7.5 18.5
21:35 1014 29.94 844 24.92 -1.1 30.1 60 -7.9 17.8
21:40 1014 29.94 844 24.92 -1.3 29.7 57 -8.8 16.2
21:45 1015 29.97 844 24.92 -1.2 29.9 57 -8.7 16.4
21:50 1015 29.97 844 24.92 -1.2 29.9 55 -9.1 15.6
21:55 1015 29.97 844 24.92 -1.3 29.7 55 -9.3 15.3
22:00 1015 29.97 844 24.92 -1.5 29.4 55 -9.3 15.3
22:05 1015 29.97 844 24.92 -1.6 29 56 -9.4 15.1
22:10 1015 29.97 844 24.92 -1.7 28.9 55 -9.5 14.9
22:15 1015 29.97 844 24.92 -1.7 28.9 54 -9.8 14.4
22:20 1015 29.97 845 24.95 -1.7 28.9 55 -9.6 14.7
22:25 1015 29.97 845 24.95 -1.8 28.8 57 -9.3 15.3
22:30 1015 29.97 845 24.95 -1.9 28.7 56 -9.6 14.7
22:35 1016 30 845 24.95 -1.9 28.5 56 -9.6 14.6
22:40 1016 30 845 24.95 -2 28.4 53 -10.3 13.4
22:45 1016 30 845 24.95 -1.9 28.6 51 -10.8 12.5
22:50 1016 30 845 24.95 -1.9 28.6 55 -9.8 14.3
22:55 1016 30 845 24.95 -2 28.3 54 -10.2 13.6
23:00 1016 30 845 24.95 -2.2 28 55 -10.1 13.8
23:05 1016 30 845 24.95 -2.3 27.9 53 -10.7 12.7
23:10 1016 30 846 24.98 -2.2 28 51 -11 12.1
23:15 1017 30.03 846 24.98 -2.2 28 51 -11 12.1
23:20 1017 30.03 846 24.98 -2.3 27.8 49 -11.6 11.1
23:25 1017 30.03 846 24.98 -2.3 27.8 51 -11.2 11.9
23:30 1017 30.03 846 24.98 -2.9 26.8 52 -11.3 11.6
23:35 1017 30.03 846 24.98 -2.9 26.7 49 -12.2 10
23:40 1017 30.03 846 24.98 -2.6 27.3 50 -11.8 10.8
23:45 1017 30.03 846 24.98 -2.5 27.6 43 -13.3 8.1
23:50 1017 30.03 846 24.98 -2.3 27.9 46 -12.5 9.6
23:55 1017 30.03 846 24.98 -2.6 27.4 48 -12.2 10.1
24:00 1017 30.03 846 24.98 -2.8 27 52 -11.4 11.5